sensor_id;sensor_type;location;lat;lon;timestamp;temperature;humidity
12771;DHT22;6449;47.666;9.160;2023-02-28T00:00:13;-0.50;99.90
12771;DHT22;6449;47.666;9.160;2023-02-28T00:05:08;-0.50;99.90
12771;DHT22;6449;47.666;9.160;2023-02-28T00:10:06;-0.40;99.90
12771;DHT22;6449;47.666;9.160;2023-02-28T00:15:02;-0.40;99.90
12771;DHT22;6449;47.666;9.160;2023-02-28T00:19:58;-0.40;99.90
12771;DHT22;6449;47.666;9.160;2023-02-28T00:24:56;-0.50;99.90
12771;DHT22;6449;47.666;9.160;2023-02-28T00:29:51;-0.50;99.90
12771;DHT22;6449;47.666;9.160;2023-02-28T00:34:45;-0.50;99.90
12771;DHT22;6449;47.666;9.160;2023-02-28T00:39:39;-0.50;99.90
12771;DHT22;6449;47.666;9.160;2023-02-28T00:44:33;-0.40;99.90
12771;DHT22;6449;47.666;9.160;2023-02-28T00:49:28;-0.30;99.90
12771;DHT22;6449;47.666;9.160;2023-02-28T00:54:22;-0.40;99.90
12771;DHT22;6449;47.666;9.160;2023-02-28T00:59:16;-0.50;99.90
12771;DHT22;6449;47.666;9.160;2023-02-28T01:04:11;-0.50;99.90
12771;DHT22;6449;47.666;9.160;2023-02-28T01:09:06;-0.50;99.90
12771;DHT22;6449;47.666;9.160;2023-02-28T01:14:00;-0.50;99.90
12771;DHT22;6449;47.666;9.160;2023-02-28T01:18:54;-0.40;99.90
12771;DHT22;6449;47.666;9.160;2023-02-28T01:23:49;-0.30;99.90
12771;DHT22;6449;47.666;9.160;2023-02-28T01:28:44;-0.40;99.90
12771;DHT22;6449;47.666;9.160;2023-02-28T01:33:38;-0.50;99.90
12771;DHT22;6449;47.666;9.160;2023-02-28T01:38:34;-0.40;99.90
12771;DHT22;6449;47.666;9.160;2023-02-28T01:43:29;-0.40;99.90
12771;DHT22;6449;47.666;9.160;2023-02-28T01:48:26;-0.40;99.90
12771;DHT22;6449;47.666;9.160;2023-02-28T01:53:27;-0.40;99.90
12771;DHT22;6449;47.666;9.160;2023-02-28T01:58:24;-0.50;99.90
12771;DHT22;6449;47.666;9.160;2023-02-28T02:03:20;-0.50;99.90
12771;DHT22;6449;47.666;9.160;2023-02-28T02:08:17;-0.40;99.90
12771;DHT22;6449;47.666;9.160;2023-02-28T02:13:44;-0.40;99.90
12771;DHT22;6449;47.666;9.160;2023-02-28T02:18:51;-0.50;99.90
12771;DHT22;6449;47.666;9.160;2023-02-28T02:24:11;-0.50;99.90
12771;DHT22;6449;47.666;9.160;2023-02-28T02:35:26;-0.60;99.90
12771;DHT22;6449;47.666;9.160;2023-02-28T02:40:25;-0.50;99.90
12771;DHT22;6449;47.666;9.160;2023-02-28T02:45:25;-0.50;99.90
12771;DHT22;6449;47.666;9.160;2023-02-28T02:50:33;-0.50;99.90
12771;DHT22;6449;47.666;9.160;2023-02-28T02:55:31;-0.50;99.90
12771;DHT22;6449;47.666;9.160;2023-02-28T03:00:32;-0.50;99.90
12771;DHT22;6449;47.666;9.160;2023-02-28T03:05:35;-0.50;99.90
12771;DHT22;6449;47.666;9.160;2023-02-28T03:10:37;-0.60;99.90
12771;DHT22;6449;47.666;9.160;2023-02-28T03:15:36;-0.60;99.90
12771;DHT22;6449;47.666;9.160;2023-02-28T03:20:49;-0.60;99.90
12771;DHT22;6449;47.666;9.160;2023-02-28T03:25:56;-0.50;99.90
12771;DHT22;6449;47.666;9.160;2023-02-28T03:30:59;-0.50;99.90
12771;DHT22;6449;47.666;9.160;2023-02-28T03:36:01;-0.60;99.90
12771;DHT22;6449;47.666;9.160;2023-02-28T03:41:00;-0.60;99.90
12771;DHT22;6449;47.666;9.160;2023-02-28T03:45:59;-0.60;99.90
12771;DHT22;6449;47.666;9.160;2023-02-28T03:50:59;-0.60;99.90
12771;DHT22;6449;47.666;9.160;2023-02-28T03:55:58;-0.50;99.90
12771;DHT22;6449;47.666;9.160;2023-02-28T04:00:59;-0.60;99.90
12771;DHT22;6449;47.666;9.160;2023-02-28T04:06:01;-0.60;99.90
12771;DHT22;6449;47.666;9.160;2023-02-28T04:10:59;-0.60;99.90
12771;DHT22;6449;47.666;9.160;2023-02-28T04:15:56;-0.50;99.90
12771;DHT22;6449;47.666;9.160;2023-02-28T04:20:49;-0.40;99.90
12771;DHT22;6449;47.666;9.160;2023-02-28T04:25:44;-0.40;99.90
12771;DHT22;6449;47.666;9.160;2023-02-28T04:30:37;-0.30;99.90
12771;DHT22;6449;47.666;9.160;2023-02-28T04:35:31;-0.40;99.90
12771;DHT22;6449;47.666;9.160;2023-02-28T04:40:25;-0.40;99.90
12771;DHT22;6449;47.666;9.160;2023-02-28T04:45:20;-0.50;99.90
12771;DHT22;6449;47.666;9.160;2023-02-28T04:50:13;-0.60;99.90
12771;DHT22;6449;47.666;9.160;2023-02-28T04:55:08;-0.60;99.90
12771;DHT22;6449;47.666;9.160;2023-02-28T05:00:05;-0.50;99.90
12771;DHT22;6449;47.666;9.160;2023-02-28T05:05:05;-0.60;99.90
12771;DHT22;6449;47.666;9.160;2023-02-28T05:09:58;-0.60;99.90
12771;DHT22;6449;47.666;9.160;2023-02-28T05:14:52;-0.60;99.90
12771;DHT22;6449;47.666;9.160;2023-02-28T05:19:45;-0.60;99.90
12771;DHT22;6449;47.666;9.160;2023-02-28T05:24:40;-0.70;99.90
12771;DHT22;6449;47.666;9.160;2023-02-28T05:29:34;-0.70;99.90
12771;DHT22;6449;47.666;9.160;2023-02-28T05:34:36;-0.70;99.90
12771;DHT22;6449;47.666;9.160;2023-02-28T05:39:29;-0.70;99.90
12771;DHT22;6449;47.666;9.160;2023-02-28T05:44:24;-0.80;99.90
12771;DHT22;6449;47.666;9.160;2023-02-28T05:49:17;-0.70;99.90
12771;DHT22;6449;47.666;9.160;2023-02-28T05:54:15;-0.60;99.90
12771;DHT22;6449;47.666;9.160;2023-02-28T05:59:08;-0.70;99.90
12771;DHT22;6449;47.666;9.160;2023-02-28T06:04:05;-0.60;99.90
12771;DHT22;6449;47.666;9.160;2023-02-28T06:09:03;-0.60;99.90
12771;DHT22;6449;47.666;9.160;2023-02-28T06:13:58;-0.50;99.90
12771;DHT22;6449;47.666;9.160;2023-02-28T06:18:52;-0.50;99.90
12771;DHT22;6449;47.666;9.160;2023-02-28T06:23:49;-0.60;99.90
12771;DHT22;6449;47.666;9.160;2023-02-28T06:28:42;-0.60;99.90
12771;DHT22;6449;47.666;9.160;2023-02-28T06:33:36;-0.60;99.90
12771;DHT22;6449;47.666;9.160;2023-02-28T06:38:30;-0.50;99.90
12771;DHT22;6449;47.666;9.160;2023-02-28T06:43:26;-0.50;99.90
12771;DHT22;6449;47.666;9.160;2023-02-28T06:48:22;-0.50;99.90
12771;DHT22;6449;47.666;9.160;2023-02-28T06:53:16;-0.50;99.90
12771;DHT22;6449;47.666;9.160;2023-02-28T06:58:09;-0.60;99.90
12771;DHT22;6449;47.666;9.160;2023-02-28T07:03:08;-0.60;99.90
12771;DHT22;6449;47.666;9.160;2023-02-28T07:08:02;-0.60;99.90
12771;DHT22;6449;47.666;9.160;2023-02-28T07:12:57;-0.50;99.90
12771;DHT22;6449;47.666;9.160;2023-02-28T07:17:51;-0.60;99.90
12771;DHT22;6449;47.666;9.160;2023-02-28T07:22:45;-0.60;99.90
12771;DHT22;6449;47.666;9.160;2023-02-28T07:27:46;-0.50;99.90
12771;DHT22;6449;47.666;9.160;2023-02-28T07:32:40;-0.50;99.90
12771;DHT22;6449;47.666;9.160;2023-02-28T07:37:35;-0.50;99.90
12771;DHT22;6449;47.666;9.160;2023-02-28T07:42:30;-0.40;99.90
12771;DHT22;6449;47.666;9.160;2023-02-28T07:47:24;-0.40;99.90
12771;DHT22;6449;47.666;9.160;2023-02-28T07:52:17;-0.40;99.90
12771;DHT22;6449;47.666;9.160;2023-02-28T07:57:11;-0.50;99.90
12771;DHT22;6449;47.666;9.160;2023-02-28T08:02:06;-0.50;99.90
12771;DHT22;6449;47.666;9.160;2023-02-28T08:06:59;-0.50;99.90
12771;DHT22;6449;47.666;9.160;2023-02-28T08:11:52;-0.50;99.90
12771;DHT22;6449;47.666;9.160;2023-02-28T08:16:46;-0.50;99.90
12771;DHT22;6449;47.666;9.160;2023-02-28T08:21:40;-0.50;99.90
12771;DHT22;6449;47.666;9.160;2023-02-28T08:26:34;-0.50;99.90
12771;DHT22;6449;47.666;9.160;2023-02-28T08:31:27;-0.50;99.90
12771;DHT22;6449;47.666;9.160;2023-02-28T08:36:21;-0.40;99.90
12771;DHT22;6449;47.666;9.160;2023-02-28T08:41:15;-0.40;99.90
12771;DHT22;6449;47.666;9.160;2023-02-28T08:46:11;-0.40;99.90
12771;DHT22;6449;47.666;9.160;2023-02-28T08:51:07;-0.40;99.90
12771;DHT22;6449;47.666;9.160;2023-02-28T08:56:03;-0.20;99.90
12771;DHT22;6449;47.666;9.160;2023-02-28T09:01:00;-0.20;99.90
12771;DHT22;6449;47.666;9.160;2023-02-28T09:05:58;-0.10;99.90
12771;DHT22;6449;47.666;9.160;2023-02-28T09:10:53;-0.10;99.90
12771;DHT22;6449;47.666;9.160;2023-02-28T09:15:49;-0.30;99.90
12771;DHT22;6449;47.666;9.160;2023-02-28T09:20:44;-0.40;99.90
12771;DHT22;6449;47.666;9.160;2023-02-28T09:25:45;-0.40;99.90
12771;DHT22;6449;47.666;9.160;2023-02-28T09:30:38;-0.30;99.90
12771;DHT22;6449;47.666;9.160;2023-02-28T09:35:32;-0.30;99.90
12771;DHT22;6449;47.666;9.160;2023-02-28T09:40:26;-0.20;99.90
12771;DHT22;6449;47.666;9.160;2023-02-28T09:45:24;-0.30;99.90
12771;DHT22;6449;47.666;9.160;2023-02-28T09:50:28;-0.30;99.90
12771;DHT22;6449;47.666;9.160;2023-02-28T09:55:30;-0.20;99.90
12771;DHT22;6449;47.666;9.160;2023-02-28T10:00:39;-0.20;99.90
12771;DHT22;6449;47.666;9.160;2023-02-28T10:05:37;-0.10;99.90
12771;DHT22;6449;47.666;9.160;2023-02-28T10:10:39;0.00;99.90
12771;DHT22;6449;47.666;9.160;2023-02-28T10:15:35;0.10;99.90
12771;DHT22;6449;47.666;9.160;2023-02-28T10:20:31;0.10;99.90
12771;DHT22;6449;47.666;9.160;2023-02-28T10:25:29;0.20;99.90
12771;DHT22;6449;47.666;9.160;2023-02-28T10:30:24;0.10;99.90
12771;DHT22;6449;47.666;9.160;2023-02-28T10:35:20;0.30;99.90
12771;DHT22;6449;47.666;9.160;2023-02-28T10:40:28;0.20;99.90
12771;DHT22;6449;47.666;9.160;2023-02-28T10:45:26;0.10;99.90
12771;DHT22;6449;47.666;9.160;2023-02-28T10:50:35;0.20;99.90
12771;DHT22;6449;47.666;9.160;2023-02-28T10:55:31;0.40;99.90
12771;DHT22;6449;47.666;9.160;2023-02-28T11:00:33;0.40;99.90
12771;DHT22;6449;47.666;9.160;2023-02-28T11:05:30;0.50;99.90
12771;DHT22;6449;47.666;9.160;2023-02-28T11:10:28;0.60;99.90
12771;DHT22;6449;47.666;9.160;2023-02-28T11:15:27;0.60;99.90
12771;DHT22;6449;47.666;9.160;2023-02-28T11:20:24;0.30;99.90
12771;DHT22;6449;47.666;9.160;2023-02-28T11:25:23;0.20;99.90
12771;DHT22;6449;47.666;9.160;2023-02-28T11:30:41;0.40;99.90
12771;DHT22;6449;47.666;9.160;2023-02-28T11:35:38;0.60;99.90
12771;DHT22;6449;47.666;9.160;2023-02-28T11:40:41;0.50;99.90
12771;DHT22;6449;47.666;9.160;2023-02-28T11:45:54;0.40;99.90
12771;DHT22;6449;47.666;9.160;2023-02-28T11:51:03;0.50;99.90
12771;DHT22;6449;47.666;9.160;2023-02-28T11:56:11;0.40;99.90
12771;DHT22;6449;47.666;9.160;2023-02-28T12:01:32;0.40;99.90
12771;DHT22;6449;47.666;9.160;2023-02-28T12:06:44;0.40;99.90
12771;DHT22;6449;47.666;9.160;2023-02-28T12:11:50;0.40;99.90
12771;DHT22;6449;47.666;9.160;2023-02-28T12:16:59;0.60;99.90
12771;DHT22;6449;47.666;9.160;2023-02-28T12:22:32;0.60;99.90
12771;DHT22;6449;47.666;9.160;2023-02-28T12:27:37;0.60;99.90
12771;DHT22;6449;47.666;9.160;2023-02-28T12:32:38;0.60;99.90
12771;DHT22;6449;47.666;9.160;2023-02-28T12:37:37;0.60;99.90
12771;DHT22;6449;47.666;9.160;2023-02-28T12:42:39;0.70;99.90
12771;DHT22;6449;47.666;9.160;2023-02-28T12:47:38;0.70;99.90
12771;DHT22;6449;47.666;9.160;2023-02-28T12:52:41;0.80;99.90
12771;DHT22;6449;47.666;9.160;2023-02-28T12:57:50;0.80;99.90
12771;DHT22;6449;47.666;9.160;2023-02-28T13:09:00;0.90;99.90
12771;DHT22;6449;47.666;9.160;2023-02-28T13:13:58;0.80;99.90
12771;DHT22;6449;47.666;9.160;2023-02-28T13:19:08;0.80;99.90
12771;DHT22;6449;47.666;9.160;2023-02-28T13:24:07;0.80;99.90
12771;DHT22;6449;47.666;9.160;2023-02-28T13:29:04;0.80;99.90
12771;DHT22;6449;47.666;9.160;2023-02-28T13:34:16;0.90;99.90
12771;DHT22;6449;47.666;9.160;2023-02-28T13:39:48;1.00;99.90
12771;DHT22;6449;47.666;9.160;2023-02-28T13:45:20;1.00;99.90
12771;DHT22;6449;47.666;9.160;2023-02-28T13:50:22;0.80;99.90
12771;DHT22;6449;47.666;9.160;2023-02-28T13:55:32;0.90;99.90
12771;DHT22;6449;47.666;9.160;2023-02-28T14:00:42;1.00;99.90
12771;DHT22;6449;47.666;9.160;2023-02-28T14:05:47;1.00;99.90
12771;DHT22;6449;47.666;9.160;2023-02-28T14:11:08;1.00;99.90
12771;DHT22;6449;47.666;9.160;2023-02-28T14:16:19;1.20;99.90
12771;DHT22;6449;47.666;9.160;2023-02-28T14:21:21;1.10;99.90
12771;DHT22;6449;47.666;9.160;2023-02-28T14:26:31;1.20;99.90
12771;DHT22;6449;47.666;9.160;2023-02-28T14:31:44;1.10;99.90
12771;DHT22;6449;47.666;9.160;2023-02-28T14:36:44;1.10;99.90
12771;DHT22;6449;47.666;9.160;2023-02-28T14:41:41;1.00;99.90
12771;DHT22;6449;47.666;9.160;2023-02-28T14:46:38;1.00;99.90
12771;DHT22;6449;47.666;9.160;2023-02-28T14:51:33;1.00;99.90
12771;DHT22;6449;47.666;9.160;2023-02-28T14:56:34;1.00;99.90
12771;DHT22;6449;47.666;9.160;2023-02-28T15:01:31;1.00;99.90
12771;DHT22;6449;47.666;9.160;2023-02-28T15:06:25;1.00;99.90
12771;DHT22;6449;47.666;9.160;2023-02-28T15:11:21;1.00;99.90
12771;DHT22;6449;47.666;9.160;2023-02-28T15:16:18;0.90;99.90
12771;DHT22;6449;47.666;9.160;2023-02-28T15:21:18;1.00;99.90
12771;DHT22;6449;47.666;9.160;2023-02-28T15:26:16;0.90;99.90
12771;DHT22;6449;47.666;9.160;2023-02-28T15:31:20;0.90;99.90
12771;DHT22;6449;47.666;9.160;2023-02-28T15:36:18;0.90;99.90
12771;DHT22;6449;47.666;9.160;2023-02-28T15:41:24;0.80;99.90
12771;DHT22;6449;47.666;9.160;2023-02-28T15:46:19;1.00;99.90
12771;DHT22;6449;47.666;9.160;2023-02-28T15:51:18;1.00;99.90
12771;DHT22;6449;47.666;9.160;2023-02-28T15:56:22;0.90;99.90
12771;DHT22;6449;47.666;9.160;2023-02-28T16:01:20;1.00;99.90
12771;DHT22;6449;47.666;9.160;2023-02-28T16:06:41;1.00;99.90
12771;DHT22;6449;47.666;9.160;2023-02-28T16:11:37;1.00;99.90
12771;DHT22;6449;47.666;9.160;2023-02-28T16:16:33;0.90;99.90
12771;DHT22;6449;47.666;9.160;2023-02-28T16:21:27;0.90;99.90
12771;DHT22;6449;47.666;9.160;2023-02-28T16:26:26;0.90;99.90
12771;DHT22;6449;47.666;9.160;2023-02-28T16:31:20;0.90;99.90
12771;DHT22;6449;47.666;9.160;2023-02-28T16:36:15;0.90;99.90
12771;DHT22;6449;47.666;9.160;2023-02-28T16:41:13;0.80;99.90
12771;DHT22;6449;47.666;9.160;2023-02-28T16:46:12;0.80;99.90
12771;DHT22;6449;47.666;9.160;2023-02-28T16:51:05;0.70;99.90
12771;DHT22;6449;47.666;9.160;2023-02-28T16:55:59;0.70;99.90
12771;DHT22;6449;47.666;9.160;2023-02-28T17:00:54;0.70;99.90
12771;DHT22;6449;47.666;9.160;2023-02-28T17:05:48;0.70;99.90
12771;DHT22;6449;47.666;9.160;2023-02-28T17:10:42;0.60;99.90
12771;DHT22;6449;47.666;9.160;2023-02-28T17:15:36;0.60;99.90
12771;DHT22;6449;47.666;9.160;2023-02-28T17:20:31;0.60;99.90
12771;DHT22;6449;47.666;9.160;2023-02-28T17:25:26;0.60;99.90
12771;DHT22;6449;47.666;9.160;2023-02-28T17:30:21;0.60;99.90
12771;DHT22;6449;47.666;9.160;2023-02-28T17:35:16;0.50;99.90
12771;DHT22;6449;47.666;9.160;2023-02-28T17:40:14;0.50;99.90
12771;DHT22;6449;47.666;9.160;2023-02-28T17:45:11;0.40;99.90
12771;DHT22;6449;47.666;9.160;2023-02-28T17:50:05;0.40;99.90
12771;DHT22;6449;47.666;9.160;2023-02-28T17:54:59;0.50;99.90
12771;DHT22;6449;47.666;9.160;2023-02-28T17:59:52;0.40;99.90
12771;DHT22;6449;47.666;9.160;2023-02-28T18:04:47;0.40;99.90
12771;DHT22;6449;47.666;9.160;2023-02-28T18:09:40;0.40;99.90
12771;DHT22;6449;47.666;9.160;2023-02-28T18:14:34;0.40;99.90
12771;DHT22;6449;47.666;9.160;2023-02-28T18:26:00;0.40;99.90
12771;DHT22;6449;47.666;9.160;2023-02-28T18:30:54;0.40;99.90
12771;DHT22;6449;47.666;9.160;2023-02-28T18:35:55;0.30;99.90
12771;DHT22;6449;47.666;9.160;2023-02-28T18:40:51;0.30;99.90
12771;DHT22;6449;47.666;9.160;2023-02-28T18:45:47;0.20;99.90
12771;DHT22;6449;47.666;9.160;2023-02-28T18:50:40;0.20;99.90
12771;DHT22;6449;47.666;9.160;2023-02-28T18:55:33;0.30;99.90
12771;DHT22;6449;47.666;9.160;2023-02-28T19:00:27;0.30;99.90
12771;DHT22;6449;47.666;9.160;2023-02-28T19:05:22;0.20;99.90
12771;DHT22;6449;47.666;9.160;2023-02-28T19:10:15;0.30;99.90
12771;DHT22;6449;47.666;9.160;2023-02-28T19:15:10;0.20;99.90
12771;DHT22;6449;47.666;9.160;2023-02-28T19:20:04;0.20;99.90
12771;DHT22;6449;47.666;9.160;2023-02-28T19:25:00;0.30;99.90
12771;DHT22;6449;47.666;9.160;2023-02-28T19:29:54;0.30;99.90
12771;DHT22;6449;47.666;9.160;2023-02-28T19:34:52;0.20;99.90
12771;DHT22;6449;47.666;9.160;2023-02-28T19:39:47;0.20;99.90
12771;DHT22;6449;47.666;9.160;2023-02-28T19:44:45;0.20;99.90
12771;DHT22;6449;47.666;9.160;2023-02-28T19:49:42;0.10;99.90
12771;DHT22;6449;47.666;9.160;2023-02-28T19:54:57;0.20;99.90
12771;DHT22;6449;47.666;9.160;2023-02-28T19:59:54;0.10;99.90
12771;DHT22;6449;47.666;9.160;2023-02-28T20:04:49;0.10;99.90
12771;DHT22;6449;47.666;9.160;2023-02-28T20:09:51;0.20;99.90
12771;DHT22;6449;47.666;9.160;2023-02-28T20:14:46;0.20;99.90
12771;DHT22;6449;47.666;9.160;2023-02-28T20:19:45;0.20;99.90
12771;DHT22;6449;47.666;9.160;2023-02-28T20:24:38;0.20;99.90
12771;DHT22;6449;47.666;9.160;2023-02-28T20:29:32;0.20;99.90
12771;DHT22;6449;47.666;9.160;2023-02-28T20:34:27;0.10;99.90
12771;DHT22;6449;47.666;9.160;2023-02-28T20:39:21;0.20;99.90
12771;DHT22;6449;47.666;9.160;2023-02-28T20:44:15;0.10;99.90
12771;DHT22;6449;47.666;9.160;2023-02-28T20:49:10;0.10;99.90
12771;DHT22;6449;47.666;9.160;2023-02-28T20:54:04;0.10;99.90
12771;DHT22;6449;47.666;9.160;2023-02-28T20:58:59;0.00;99.90
12771;DHT22;6449;47.666;9.160;2023-02-28T21:03:53;0.10;99.90
12771;DHT22;6449;47.666;9.160;2023-02-28T21:08:48;0.10;99.90
12771;DHT22;6449;47.666;9.160;2023-02-28T21:13:43;0.20;99.90
12771;DHT22;6449;47.666;9.160;2023-02-28T21:18:39;0.30;99.90
12771;DHT22;6449;47.666;9.160;2023-02-28T21:23:33;0.40;99.90
12771;DHT22;6449;47.666;9.160;2023-02-28T21:28:27;0.40;99.90
12771;DHT22;6449;47.666;9.160;2023-02-28T21:33:20;0.40;99.90
12771;DHT22;6449;47.666;9.160;2023-02-28T21:38:15;0.50;99.90
12771;DHT22;6449;47.666;9.160;2023-02-28T21:43:08;0.40;99.90
12771;DHT22;6449;47.666;9.160;2023-02-28T21:48:02;0.30;99.90
12771;DHT22;6449;47.666;9.160;2023-02-28T21:52:55;0.30;99.90
12771;DHT22;6449;47.666;9.160;2023-02-28T21:57:51;0.30;99.90
12771;DHT22;6449;47.666;9.160;2023-02-28T22:02:44;0.40;99.90
12771;DHT22;6449;47.666;9.160;2023-02-28T22:07:38;0.40;99.90
12771;DHT22;6449;47.666;9.160;2023-02-28T22:12:32;0.40;99.90
12771;DHT22;6449;47.666;9.160;2023-02-28T22:17:27;0.40;99.90
12771;DHT22;6449;47.666;9.160;2023-02-28T22:22:20;0.40;99.90
12771;DHT22;6449;47.666;9.160;2023-02-28T22:27:14;0.40;99.90
12771;DHT22;6449;47.666;9.160;2023-02-28T22:32:07;0.50;99.90
12771;DHT22;6449;47.666;9.160;2023-02-28T22:37:03;0.50;99.90
12771;DHT22;6449;47.666;9.160;2023-02-28T22:41:57;0.50;99.90
12771;DHT22;6449;47.666;9.160;2023-02-28T22:46:52;0.50;99.90
12771;DHT22;6449;47.666;9.160;2023-02-28T22:51:46;0.50;99.90
12771;DHT22;6449;47.666;9.160;2023-02-28T22:56:41;0.50;99.90
12771;DHT22;6449;47.666;9.160;2023-02-28T23:01:34;0.50;99.90
12771;DHT22;6449;47.666;9.160;2023-02-28T23:06:29;0.60;99.90
12771;DHT22;6449;47.666;9.160;2023-02-28T23:11:27;0.60;99.90
12771;DHT22;6449;47.666;9.160;2023-02-28T23:16:25;0.60;99.90
12771;DHT22;6449;47.666;9.160;2023-02-28T23:21:21;0.60;99.90
12771;DHT22;6449;47.666;9.160;2023-02-28T23:26:15;0.60;99.90
12771;DHT22;6449;47.666;9.160;2023-02-28T23:31:08;0.60;99.90
12771;DHT22;6449;47.666;9.160;2023-02-28T23:36:11;0.60;99.90
12771;DHT22;6449;47.666;9.160;2023-02-28T23:41:07;0.70;99.90
12771;DHT22;6449;47.666;9.160;2023-02-28T23:46:01;0.70;99.90
12771;DHT22;6449;47.666;9.160;2023-02-28T23:50:59;0.70;99.90
12771;DHT22;6449;47.666;9.160;2023-02-28T23:55:54;0.70;99.90
